FMNN

Fascene Airport

Nosy Be, Madagascar
METAR FMNN 231000Z 06004KT 9999 FEW020 32/24 Q1007
Observed Flight Rules
Feb-23 @ 10:00 UTC (32 minutes ago) Visual Flight Rules
Wind Visibility Clouds
60° at 4 knots 10,000+ meters
  • Few at 2,000' AGL
Temperatures Readings
Current 32°C / 90°F
Dewpoint 24°C / 75°F
Humidity 63%
Altimeter 29.73" Hg
Pressure 1007 hPa
Elevation 9
METAR FMNN 231000Z 06004KT 9999 FEW020 32/24 Q1007
Observed Flight Rules
Feb-23 @ 10:00 UTC
(32 minutes ago)
VFR
Wind Visibility
60° at 4 knots 10,000+ meters
Clouds
  • Few at 2,000' AGL
Temperature Dewpoint
32°C / 90°F 24°C / 75°F
Humidity Altimeter Pressure
63% 29.73" Hg 1007 hPa